sensor_id;sensor_type;location;lat;lon;timestamp;P1;durP1;ratioP1;P2;durP2;ratioP2
30681;SDS011;17439;48.092;11.842;2023-05-23T00:01:45;11.73;;;5.63;;
30681;SDS011;17439;48.092;11.842;2023-05-23T00:04:12;10.07;;;5.90;;
30681;SDS011;17439;48.092;11.842;2023-05-23T00:06:38;10.50;;;5.50;;
30681;SDS011;17439;48.092;11.842;2023-05-23T00:09:05;8.90;;;5.38;;
30681;SDS011;17439;48.092;11.842;2023-05-23T00:11:32;9.57;;;5.93;;
30681;SDS011;17439;48.092;11.842;2023-05-23T00:13:59;11.05;;;5.63;;
30681;SDS011;17439;48.092;11.842;2023-05-23T00:16:25;8.80;;;5.63;;
30681;SDS011;17439;48.092;11.842;2023-05-23T00:18:52;8.90;;;6.40;;
30681;SDS011;17439;48.092;11.842;2023-05-23T00:21:19;8.75;;;5.72;;
30681;SDS011;17439;48.092;11.842;2023-05-23T00:23:45;8.15;;;5.72;;
30681;SDS011;17439;48.092;11.842;2023-05-23T00:26:12;9.60;;;6.07;;
30681;SDS011;17439;48.092;11.842;2023-05-23T00:28:44;10.68;;;5.85;;
30681;SDS011;17439;48.092;11.842;2023-05-23T00:31:11;8.45;;;6.05;;
30681;SDS011;17439;48.092;11.842;2023-05-23T00:33:37;9.88;;;5.90;;
30681;SDS011;17439;48.092;11.842;2023-05-23T00:36:04;11.05;;;5.35;;
30681;SDS011;17439;48.092;11.842;2023-05-23T00:38:31;13.32;;;5.68;;
30681;SDS011;17439;48.092;11.842;2023-05-23T00:40:58;11.65;;;5.95;;
30681;SDS011;17439;48.092;11.842;2023-05-23T00:43:25;9.02;;;5.45;;
30681;SDS011;17439;48.092;11.842;2023-05-23T00:45:52;10.45;;;5.90;;
30681;SDS011;17439;48.092;11.842;2023-05-23T00:48:19;7.80;;;5.50;;
30681;SDS011;17439;48.092;11.842;2023-05-23T00:50:46;7.80;;;5.60;;
30681;SDS011;17439;48.092;11.842;2023-05-23T00:53:13;10.70;;;6.35;;
30681;SDS011;17439;48.092;11.842;2023-05-23T00:55:40;9.95;;;6.03;;
30681;SDS011;17439;48.092;11.842;2023-05-23T00:58:07;10.10;;;6.18;;
30681;SDS011;17439;48.092;11.842;2023-05-23T01:00:34;8.33;;;5.77;;
30681;SDS011;17439;48.092;11.842;2023-05-23T01:03:01;10.95;;;5.63;;
30681;SDS011;17439;48.092;11.842;2023-05-23T01:05:28;10.30;;;5.28;;
30681;SDS011;17439;48.092;11.842;2023-05-23T01:07:54;9.35;;;6.28;;
30681;SDS011;17439;48.092;11.842;2023-05-23T01:10:25;9.55;;;5.95;;
30681;SDS011;17439;48.092;11.842;2023-05-23T01:12:55;6.60;;;4.40;;
30681;SDS011;17439;48.092;11.842;2023-05-23T01:18:26;10.60;;;5.97;;
30681;SDS011;17439;48.092;11.842;2023-05-23T01:21:02;9.07;;;5.38;;
30681;SDS011;17439;48.092;11.842;2023-05-23T01:23:39;9.80;;;6.07;;
30681;SDS011;17439;48.092;11.842;2023-05-23T01:26:45;8.10;;;5.47;;
30681;SDS011;17439;48.092;11.842;2023-05-23T01:29:31;12.18;;;5.90;;
30681;SDS011;17439;48.092;11.842;2023-05-23T01:32:02;16.00;;;6.07;;
30681;SDS011;17439;48.092;11.842;2023-05-23T01:34:34;8.63;;;5.63;;
30681;SDS011;17439;48.092;11.842;2023-05-23T01:37:02;7.95;;;5.30;;
30681;SDS011;17439;48.092;11.842;2023-05-23T01:39:35;11.32;;;5.75;;
30681;SDS011;17439;48.092;11.842;2023-05-23T01:42:02;9.07;;;5.97;;
30681;SDS011;17439;48.092;11.842;2023-05-23T01:44:31;8.05;;;5.50;;
30681;SDS011;17439;48.092;11.842;2023-05-23T01:47:00;9.23;;;6.05;;
30681;SDS011;17439;48.092;11.842;2023-05-23T01:49:28;8.68;;;5.55;;
30681;SDS011;17439;48.092;11.842;2023-05-23T01:51:57;6.43;;;4.80;;
30681;SDS011;17439;48.092;11.842;2023-05-23T01:54:26;11.27;;;5.68;;
30681;SDS011;17439;48.092;11.842;2023-05-23T01:56:58;9.77;;;5.97;;
30681;SDS011;17439;48.092;11.842;2023-05-23T01:59:26;7.38;;;5.00;;
30681;SDS011;17439;48.092;11.842;2023-05-23T02:01:55;12.15;;;5.53;;
30681;SDS011;17439;48.092;11.842;2023-05-23T02:04:21;11.27;;;6.22;;
30681;SDS011;17439;48.092;11.842;2023-05-23T02:06:48;10.32;;;6.18;;
30681;SDS011;17439;48.092;11.842;2023-05-23T02:09:15;7.20;;;5.03;;
30681;SDS011;17439;48.092;11.842;2023-05-23T02:11:43;8.98;;;5.65;;
30681;SDS011;17439;48.092;11.842;2023-05-23T02:14:10;10.60;;;6.13;;
30681;SDS011;17439;48.092;11.842;2023-05-23T02:16:36;8.00;;;5.22;;
30681;SDS011;17439;48.092;11.842;2023-05-23T02:19:03;9.55;;;5.57;;
30681;SDS011;17439;48.092;11.842;2023-05-23T02:21:30;6.82;;;5.18;;
30681;SDS011;17439;48.092;11.842;2023-05-23T02:24:01;9.93;;;5.80;;
30681;SDS011;17439;48.092;11.842;2023-05-23T02:26:28;9.05;;;6.35;;
30681;SDS011;17439;48.092;11.842;2023-05-23T02:28:55;10.40;;;5.90;;
30681;SDS011;17439;48.092;11.842;2023-05-23T02:31:23;10.60;;;5.97;;
30681;SDS011;17439;48.092;11.842;2023-05-23T02:33:50;7.20;;;4.95;;
30681;SDS011;17439;48.092;11.842;2023-05-23T02:36:17;9.70;;;5.18;;
30681;SDS011;17439;48.092;11.842;2023-05-23T02:38:43;12.43;;;5.15;;
30681;SDS011;17439;48.092;11.842;2023-05-23T02:41:10;15.00;;;7.05;;
30681;SDS011;17439;48.092;11.842;2023-05-23T02:43:37;10.82;;;6.20;;
30681;SDS011;17439;48.092;11.842;2023-05-23T02:46:04;10.70;;;5.55;;
30681;SDS011;17439;48.092;11.842;2023-05-23T02:48:31;10.32;;;5.65;;
30681;SDS011;17439;48.092;11.842;2023-05-23T02:50:58;11.77;;;6.28;;
30681;SDS011;17439;48.092;11.842;2023-05-23T02:53:25;16.95;;;7.03;;
30681;SDS011;17439;48.092;11.842;2023-05-23T02:55:52;9.30;;;6.33;;
30681;SDS011;17439;48.092;11.842;2023-05-23T02:58:19;11.15;;;6.10;;
30681;SDS011;17439;48.092;11.842;2023-05-23T03:00:46;9.32;;;6.10;;
30681;SDS011;17439;48.092;11.842;2023-05-23T03:03:12;14.43;;;5.72;;
30681;SDS011;17439;48.092;11.842;2023-05-23T03:05:39;8.27;;;5.45;;
30681;SDS011;17439;48.092;11.842;2023-05-23T03:08:06;9.85;;;5.65;;
30681;SDS011;17439;48.092;11.842;2023-05-23T03:10:33;9.23;;;6.32;;
30681;SDS011;17439;48.092;11.842;2023-05-23T03:12:59;11.30;;;5.95;;
30681;SDS011;17439;48.092;11.842;2023-05-23T03:15:26;11.93;;;6.97;;
30681;SDS011;17439;48.092;11.842;2023-05-23T03:17:53;13.10;;;6.72;;
30681;SDS011;17439;48.092;11.842;2023-05-23T03:20:20;8.65;;;6.47;;
30681;SDS011;17439;48.092;11.842;2023-05-23T03:22:46;11.50;;;6.38;;
30681;SDS011;17439;48.092;11.842;2023-05-23T03:25:14;8.75;;;5.40;;
30681;SDS011;17439;48.092;11.842;2023-05-23T03:27:44;9.60;;;6.65;;
30681;SDS011;17439;48.092;11.842;2023-05-23T03:30:11;8.57;;;5.55;;
30681;SDS011;17439;48.092;11.842;2023-05-23T03:32:38;11.53;;;7.03;;
30681;SDS011;17439;48.092;11.842;2023-05-23T03:35:05;9.35;;;6.88;;
30681;SDS011;17439;48.092;11.842;2023-05-23T03:37:32;13.53;;;8.00;;
30681;SDS011;17439;48.092;11.842;2023-05-23T03:39:58;13.43;;;7.47;;
30681;SDS011;17439;48.092;11.842;2023-05-23T03:42:26;10.35;;;7.15;;
30681;SDS011;17439;48.092;11.842;2023-05-23T03:44:54;11.25;;;7.50;;
30681;SDS011;17439;48.092;11.842;2023-05-23T03:47:21;12.68;;;6.90;;
30681;SDS011;17439;48.092;11.842;2023-05-23T03:49:49;11.05;;;7.40;;
30681;SDS011;17439;48.092;11.842;2023-05-23T03:52:16;11.10;;;7.70;;
30681;SDS011;17439;48.092;11.842;2023-05-23T03:54:43;12.13;;;7.87;;
30681;SDS011;17439;48.092;11.842;2023-05-23T03:57:11;11.90;;;7.45;;
30681;SDS011;17439;48.092;11.842;2023-05-23T03:59:38;12.55;;;6.88;;
30681;SDS011;17439;48.092;11.842;2023-05-23T04:02:08;11.45;;;7.60;;
30681;SDS011;17439;48.092;11.842;2023-05-23T04:04:35;10.40;;;7.22;;
30681;SDS011;17439;48.092;11.842;2023-05-23T04:07:03;12.20;;;7.32;;
30681;SDS011;17439;48.092;11.842;2023-05-23T04:09:30;16.05;;;8.15;;
30681;SDS011;17439;48.092;11.842;2023-05-23T04:11:58;12.13;;;7.05;;
30681;SDS011;17439;48.092;11.842;2023-05-23T04:14:26;10.30;;;7.55;;
30681;SDS011;17439;48.092;11.842;2023-05-23T04:16:53;10.80;;;7.65;;
30681;SDS011;17439;48.092;11.842;2023-05-23T04:19:21;12.65;;;7.25;;
30681;SDS011;17439;48.092;11.842;2023-05-23T04:21:50;12.35;;;7.75;;
30681;SDS011;17439;48.092;11.842;2023-05-23T04:24:17;12.70;;;8.25;;
30681;SDS011;17439;48.092;11.842;2023-05-23T04:26:45;13.73;;;8.15;;
30681;SDS011;17439;48.092;11.842;2023-05-23T04:29:11;10.63;;;8.18;;
30681;SDS011;17439;48.092;11.842;2023-05-23T04:31:38;11.73;;;7.47;;
30681;SDS011;17439;48.092;11.842;2023-05-23T04:34:05;10.02;;;6.55;;
30681;SDS011;17439;48.092;11.842;2023-05-23T04:36:36;12.68;;;8.23;;
30681;SDS011;17439;48.092;11.842;2023-05-23T04:39:04;12.73;;;8.27;;
30681;SDS011;17439;48.092;11.842;2023-05-23T04:41:35;10.75;;;7.40;;
30681;SDS011;17439;48.092;11.842;2023-05-23T04:44:07;11.50;;;7.55;;
30681;SDS011;17439;48.092;11.842;2023-05-23T04:46:38;14.32;;;7.97;;
30681;SDS011;17439;48.092;11.842;2023-05-23T04:49:21;9.98;;;7.30;;
30681;SDS011;17439;48.092;11.842;2023-05-23T04:51:49;15.07;;;8.93;;
30681;SDS011;17439;48.092;11.842;2023-05-23T04:54:19;13.57;;;8.63;;
30681;SDS011;17439;48.092;11.842;2023-05-23T04:56:46;14.30;;;7.75;;
30681;SDS011;17439;48.092;11.842;2023-05-23T04:59:16;15.32;;;8.05;;
30681;SDS011;17439;48.092;11.842;2023-05-23T05:01:43;12.68;;;8.13;;
30681;SDS011;17439;48.092;11.842;2023-05-23T05:06:39;10.93;;;7.18;;
30681;SDS011;17439;48.092;11.842;2023-05-23T05:09:07;14.85;;;8.25;;
30681;SDS011;17439;48.092;11.842;2023-05-23T05:11:34;12.88;;;8.10;;
30681;SDS011;17439;48.092;11.842;2023-05-23T05:14:01;10.63;;;7.68;;
30681;SDS011;17439;48.092;11.842;2023-05-23T05:16:28;12.27;;;7.33;;
30681;SDS011;17439;48.092;11.842;2023-05-23T05:18:55;12.75;;;7.72;;
30681;SDS011;17439;48.092;11.842;2023-05-23T05:21:22;13.82;;;7.97;;
30681;SDS011;17439;48.092;11.842;2023-05-23T05:23:49;15.80;;;9.38;;
30681;SDS011;17439;48.092;11.842;2023-05-23T05:26:16;11.07;;;8.20;;
30681;SDS011;17439;48.092;11.842;2023-05-23T05:28:43;13.60;;;8.55;;
30681;SDS011;17439;48.092;11.842;2023-05-23T05:31:10;13.82;;;8.40;;
30681;SDS011;17439;48.092;11.842;2023-05-23T05:33:38;13.02;;;7.97;;
30681;SDS011;17439;48.092;11.842;2023-05-23T05:36:10;12.75;;;7.70;;
30681;SDS011;17439;48.092;11.842;2023-05-23T05:38:38;10.57;;;7.78;;
30681;SDS011;17439;48.092;11.842;2023-05-23T05:41:05;12.00;;;8.40;;
30681;SDS011;17439;48.092;11.842;2023-05-23T05:43:38;11.07;;;7.65;;
30681;SDS011;17439;48.092;11.842;2023-05-23T05:46:04;13.43;;;8.65;;
30681;SDS011;17439;48.092;11.842;2023-05-23T05:48:32;11.35;;;7.55;;
30681;SDS011;17439;48.092;11.842;2023-05-23T05:51:03;13.95;;;8.02;;
30681;SDS011;17439;48.092;11.842;2023-05-23T05:53:32;11.93;;;7.75;;
30681;SDS011;17439;48.092;11.842;2023-05-23T05:55:59;12.23;;;7.73;;
30681;SDS011;17439;48.092;11.842;2023-05-23T05:58:27;16.13;;;7.75;;
30681;SDS011;17439;48.092;11.842;2023-05-23T06:01:00;13.82;;;7.60;;
30681;SDS011;17439;48.092;11.842;2023-05-23T06:03:27;11.88;;;7.47;;
30681;SDS011;17439;48.092;11.842;2023-05-23T06:05:54;13.85;;;8.23;;
30681;SDS011;17439;48.092;11.842;2023-05-23T06:08:21;14.93;;;9.45;;
30681;SDS011;17439;48.092;11.842;2023-05-23T06:10:48;13.30;;;8.05;;
30681;SDS011;17439;48.092;11.842;2023-05-23T06:13:15;15.60;;;9.88;;
30681;SDS011;17439;48.092;11.842;2023-05-23T06:15:46;12.32;;;8.05;;
30681;SDS011;17439;48.092;11.842;2023-05-23T06:18:12;16.50;;;9.18;;
30681;SDS011;17439;48.092;11.842;2023-05-23T06:20:39;14.82;;;8.80;;
30681;SDS011;17439;48.092;11.842;2023-05-23T06:23:11;17.25;;;8.30;;
30681;SDS011;17439;48.092;11.842;2023-05-23T06:25:38;15.35;;;9.13;;
30681;SDS011;17439;48.092;11.842;2023-05-23T06:28:05;16.08;;;9.65;;
30681;SDS011;17439;48.092;11.842;2023-05-23T06:30:32;15.38;;;9.02;;
30681;SDS011;17439;48.092;11.842;2023-05-23T06:32:59;13.32;;;8.65;;
30681;SDS011;17439;48.092;11.842;2023-05-23T06:35:25;15.80;;;10.15;;
30681;SDS011;17439;48.092;11.842;2023-05-23T06:37:52;15.00;;;9.80;;
30681;SDS011;17439;48.092;11.842;2023-05-23T06:40:19;15.88;;;9.23;;
30681;SDS011;17439;48.092;11.842;2023-05-23T06:42:46;16.88;;;9.60;;
30681;SDS011;17439;48.092;11.842;2023-05-23T06:45:22;12.90;;;8.32;;
30681;SDS011;17439;48.092;11.842;2023-05-23T06:47:49;15.38;;;9.90;;
30681;SDS011;17439;48.092;11.842;2023-05-23T06:50:16;21.42;;;10.55;;
30681;SDS011;17439;48.092;11.842;2023-05-23T06:52:43;13.68;;;9.55;;
30681;SDS011;17439;48.092;11.842;2023-05-23T06:55:10;13.20;;;8.70;;
30681;SDS011;17439;48.092;11.842;2023-05-23T06:57:37;18.75;;;9.45;;
30681;SDS011;17439;48.092;11.842;2023-05-23T07:00:04;14.30;;;8.80;;
30681;SDS011;17439;48.092;11.842;2023-05-23T07:02:38;12.73;;;9.15;;
30681;SDS011;17439;48.092;11.842;2023-05-23T07:05:05;12.93;;;8.63;;
30681;SDS011;17439;48.092;11.842;2023-05-23T07:07:50;17.33;;;10.55;;
30681;SDS011;17439;48.092;11.842;2023-05-23T07:10:17;16.33;;;10.50;;
30681;SDS011;17439;48.092;11.842;2023-05-23T07:12:46;19.77;;;11.48;;
30681;SDS011;17439;48.092;11.842;2023-05-23T07:15:14;24.17;;;11.85;;
30681;SDS011;17439;48.092;11.842;2023-05-23T07:18:03;24.42;;;12.25;;
30681;SDS011;17439;48.092;11.842;2023-05-23T07:20:34;17.20;;;11.10;;
30681;SDS011;17439;48.092;11.842;2023-05-23T07:23:09;15.70;;;10.13;;
30681;SDS011;17439;48.092;11.842;2023-05-23T07:25:37;17.63;;;10.88;;
30681;SDS011;17439;48.092;11.842;2023-05-23T07:28:18;16.92;;;10.48;;
30681;SDS011;17439;48.092;11.842;2023-05-23T07:30:45;20.50;;;12.85;;
30681;SDS011;17439;48.092;11.842;2023-05-23T07:33:12;17.30;;;10.68;;
30681;SDS011;17439;48.092;11.842;2023-05-23T07:35:42;21.98;;;12.13;;
30681;SDS011;17439;48.092;11.842;2023-05-23T07:38:09;21.75;;;13.65;;
30681;SDS011;17439;48.092;11.842;2023-05-23T07:40:36;21.52;;;13.32;;
30681;SDS011;17439;48.092;11.842;2023-05-23T07:43:03;19.40;;;11.25;;
30681;SDS011;17439;48.092;11.842;2023-05-23T07:45:30;18.27;;;10.40;;
30681;SDS011;17439;48.092;11.842;2023-05-23T07:47:59;22.80;;;11.38;;
30681;SDS011;17439;48.092;11.842;2023-05-23T07:52:53;17.35;;;11.35;;
30681;SDS011;17439;48.092;11.842;2023-05-23T07:55:26;21.00;;;12.52;;
30681;SDS011;17439;48.092;11.842;2023-05-23T07:57:53;19.48;;;12.07;;
30681;SDS011;17439;48.092;11.842;2023-05-23T08:00:20;20.75;;;12.07;;
30681;SDS011;17439;48.092;11.842;2023-05-23T08:02:53;21.70;;;13.95;;
30681;SDS011;17439;48.092;11.842;2023-05-23T08:05:25;22.42;;;11.70;;
30681;SDS011;17439;48.092;11.842;2023-05-23T08:07:55;21.55;;;12.68;;
30681;SDS011;17439;48.092;11.842;2023-05-23T08:12:51;20.48;;;12.45;;
30681;SDS011;17439;48.092;11.842;2023-05-23T08:15:18;17.65;;;11.70;;
30681;SDS011;17439;48.092;11.842;2023-05-23T08:17:50;19.60;;;11.65;;
30681;SDS011;17439;48.092;11.842;2023-05-23T08:20:16;18.20;;;12.20;;
30681;SDS011;17439;48.092;11.842;2023-05-23T08:22:44;26.85;;;13.40;;
30681;SDS011;17439;48.092;11.842;2023-05-23T08:25:11;20.20;;;12.30;;
30681;SDS011;17439;48.092;11.842;2023-05-23T08:30:28;20.30;;;13.05;;
30681;SDS011;17439;48.092;11.842;2023-05-23T08:32:55;17.53;;;12.10;;
30681;SDS011;17439;48.092;11.842;2023-05-23T08:35:22;17.05;;;11.20;;
30681;SDS011;17439;48.092;11.842;2023-05-23T08:37:49;22.35;;;14.10;;
30681;SDS011;17439;48.092;11.842;2023-05-23T08:40:20;20.60;;;14.55;;
30681;SDS011;17439;48.092;11.842;2023-05-23T08:43:01;19.88;;;12.68;;
30681;SDS011;17439;48.092;11.842;2023-05-23T08:45:28;22.20;;;14.20;;
30681;SDS011;17439;48.092;11.842;2023-05-23T08:50:26;20.17;;;12.38;;
30681;SDS011;17439;48.092;11.842;2023-05-23T08:52:58;20.02;;;12.25;;
30681;SDS011;17439;48.092;11.842;2023-05-23T08:55:27;21.88;;;12.05;;
30681;SDS011;17439;48.092;11.842;2023-05-23T08:57:57;24.45;;;13.35;;
30681;SDS011;17439;48.092;11.842;2023-05-23T09:00:50;22.83;;;13.52;;
30681;SDS011;17439;48.092;11.842;2023-05-23T09:03:19;18.92;;;12.45;;
30681;SDS011;17439;48.092;11.842;2023-05-23T09:06:10;20.92;;;12.10;;
30681;SDS011;17439;48.092;11.842;2023-05-23T09:08:37;16.70;;;11.70;;
30681;SDS011;17439;48.092;11.842;2023-05-23T09:11:04;25.92;;;12.85;;
30681;SDS011;17439;48.092;11.842;2023-05-23T09:13:35;18.92;;;11.95;;
30681;SDS011;17439;48.092;11.842;2023-05-23T09:16:08;21.20;;;12.75;;
30681;SDS011;17439;48.092;11.842;2023-05-23T09:18:41;23.02;;;13.32;;
30681;SDS011;17439;48.092;11.842;2023-05-23T09:21:13;17.95;;;12.32;;
30681;SDS011;17439;48.092;11.842;2023-05-23T09:23:57;20.38;;;13.85;;
30681;SDS011;17439;48.092;11.842;2023-05-23T09:26:25;17.90;;;12.32;;
30681;SDS011;17439;48.092;11.842;2023-05-23T09:28:55;22.90;;;12.85;;
30681;SDS011;17439;48.092;11.842;2023-05-23T09:31:25;21.20;;;12.57;;
30681;SDS011;17439;48.092;11.842;2023-05-23T09:33:52;18.05;;;11.57;;
30681;SDS011;17439;48.092;11.842;2023-05-23T09:36:19;20.13;;;12.52;;
30681;SDS011;17439;48.092;11.842;2023-05-23T09:38:46;21.17;;;13.48;;
30681;SDS011;17439;48.092;11.842;2023-05-23T09:41:13;17.27;;;12.45;;
30681;SDS011;17439;48.092;11.842;2023-05-23T09:43:50;18.00;;;12.23;;
30681;SDS011;17439;48.092;11.842;2023-05-23T09:46:18;21.15;;;12.70;;
30681;SDS011;17439;48.092;11.842;2023-05-23T09:48:49;23.35;;;14.95;;
30681;SDS011;17439;48.092;11.842;2023-05-23T09:51:17;19.58;;;12.35;;
30681;SDS011;17439;48.092;11.842;2023-05-23T09:53:45;22.02;;;14.70;;
30681;SDS011;17439;48.092;11.842;2023-05-23T09:56:12;24.30;;;14.90;;
30681;SDS011;17439;48.092;11.842;2023-05-23T09:58:42;20.52;;;12.82;;
30681;SDS011;17439;48.092;11.842;2023-05-23T10:01:12;21.80;;;14.52;;
30681;SDS011;17439;48.092;11.842;2023-05-23T10:09:16;30.75;;;15.13;;
30681;SDS011;17439;48.092;11.842;2023-05-23T10:14:51;21.23;;;14.07;;
30681;SDS011;17439;48.092;11.842;2023-05-23T10:17:23;20.88;;;12.60;;
30681;SDS011;17439;48.092;11.842;2023-05-23T10:20:13;27.00;;;13.98;;
30681;SDS011;17439;48.092;11.842;2023-05-23T10:22:42;22.50;;;14.48;;
30681;SDS011;17439;48.092;11.842;2023-05-23T10:25:09;23.45;;;13.75;;
30681;SDS011;17439;48.092;11.842;2023-05-23T10:27:39;21.40;;;13.73;;
30681;SDS011;17439;48.092;11.842;2023-05-23T10:30:06;20.55;;;12.73;;
30681;SDS011;17439;48.092;11.842;2023-05-23T10:32:34;26.83;;;16.70;;
30681;SDS011;17439;48.092;11.842;2023-05-23T10:35:36;23.38;;;14.05;;
30681;SDS011;17439;48.092;11.842;2023-05-23T10:46:08;22.48;;;13.35;;
30681;SDS011;17439;48.092;11.842;2023-05-23T10:48:39;21.45;;;14.60;;
30681;SDS011;17439;48.092;11.842;2023-05-23T10:51:08;22.17;;;14.57;;
30681;SDS011;17439;48.092;11.842;2023-05-23T10:53:40;24.30;;;14.02;;
30681;SDS011;17439;48.092;11.842;2023-05-23T10:56:09;21.60;;;14.68;;
30681;SDS011;17439;48.092;11.842;2023-05-23T10:58:37;22.98;;;14.60;;
30681;SDS011;17439;48.092;11.842;2023-05-23T11:01:06;23.50;;;15.35;;
30681;SDS011;17439;48.092;11.842;2023-05-23T11:09:11;20.48;;;13.40;;
30681;SDS011;17439;48.092;11.842;2023-05-23T11:11:58;27.77;;;15.57;;
30681;SDS011;17439;48.092;11.842;2023-05-23T11:19:38;22.30;;;14.85;;
30681;SDS011;17439;48.092;11.842;2023-05-23T11:22:08;20.03;;;13.30;;
30681;SDS011;17439;48.092;11.842;2023-05-23T11:24:48;19.77;;;13.95;;
30681;SDS011;17439;48.092;11.842;2023-05-23T11:27:34;23.45;;;16.08;;
30681;SDS011;17439;48.092;11.842;2023-05-23T11:30:03;20.88;;;12.80;;
30681;SDS011;17439;48.092;11.842;2023-05-23T11:32:33;20.70;;;14.23;;
30681;SDS011;17439;48.092;11.842;2023-05-23T11:35:01;26.15;;;14.13;;
30681;SDS011;17439;48.092;11.842;2023-05-23T11:37:29;21.20;;;12.15;;
30681;SDS011;17439;48.092;11.842;2023-05-23T11:39:56;18.73;;;12.70;;
30681;SDS011;17439;48.092;11.842;2023-05-23T11:42:23;24.35;;;14.35;;
30681;SDS011;17439;48.092;11.842;2023-05-23T11:44:51;23.90;;;16.27;;
30681;SDS011;17439;48.092;11.842;2023-05-23T11:47:18;19.10;;;12.53;;
30681;SDS011;17439;48.092;11.842;2023-05-23T11:49:45;24.17;;;13.47;;
30681;SDS011;17439;48.092;11.842;2023-05-23T11:52:12;17.77;;;11.10;;
30681;SDS011;17439;48.092;11.842;2023-05-23T11:54:42;18.30;;;11.27;;
30681;SDS011;17439;48.092;11.842;2023-05-23T11:57:09;23.55;;;12.40;;
30681;SDS011;17439;48.092;11.842;2023-05-23T11:59:36;21.15;;;12.80;;
30681;SDS011;17439;48.092;11.842;2023-05-23T12:02:04;15.18;;;10.23;;
30681;SDS011;17439;48.092;11.842;2023-05-23T12:04:33;15.18;;;10.38;;
30681;SDS011;17439;48.092;11.842;2023-05-23T12:07:03;19.95;;;11.20;;
30681;SDS011;17439;48.092;11.842;2023-05-23T12:09:30;15.60;;;11.25;;
30681;SDS011;17439;48.092;11.842;2023-05-23T12:11:56;17.30;;;10.80;;
30681;SDS011;17439;48.092;11.842;2023-05-23T12:14:23;15.38;;;9.80;;
30681;SDS011;17439;48.092;11.842;2023-05-23T12:16:54;19.90;;;9.45;;
30681;SDS011;17439;48.092;11.842;2023-05-23T12:19:20;18.60;;;10.73;;
30681;SDS011;17439;48.092;11.842;2023-05-23T12:21:48;14.15;;;10.52;;
30681;SDS011;17439;48.092;11.842;2023-05-23T12:24:16;17.88;;;10.75;;
30681;SDS011;17439;48.092;11.842;2023-05-23T12:29:18;16.70;;;10.18;;
30681;SDS011;17439;48.092;11.842;2023-05-23T12:31:48;17.92;;;11.43;;
30681;SDS011;17439;48.092;11.842;2023-05-23T12:34:16;12.57;;;8.43;;
30681;SDS011;17439;48.092;11.842;2023-05-23T12:36:43;20.63;;;11.80;;
30681;SDS011;17439;48.092;11.842;2023-05-23T12:39:15;14.23;;;9.57;;
30681;SDS011;17439;48.092;11.842;2023-05-23T12:41:41;16.63;;;11.15;;
30681;SDS011;17439;48.092;11.842;2023-05-23T12:44:08;15.70;;;9.88;;
30681;SDS011;17439;48.092;11.842;2023-05-23T12:46:35;19.83;;;10.75;;
30681;SDS011;17439;48.092;11.842;2023-05-23T12:49:02;12.52;;;9.18;;
30681;SDS011;17439;48.092;11.842;2023-05-23T12:51:29;15.15;;;9.75;;
30681;SDS011;17439;48.092;11.842;2023-05-23T12:53:55;16.17;;;9.15;;
30681;SDS011;17439;48.092;11.842;2023-05-23T12:56:22;15.18;;;10.38;;
30681;SDS011;17439;48.092;11.842;2023-05-23T12:58:49;14.23;;;10.45;;
30681;SDS011;17439;48.092;11.842;2023-05-23T13:01:16;17.10;;;10.80;;
30681;SDS011;17439;48.092;11.842;2023-05-23T13:03:42;15.32;;;10.55;;
30681;SDS011;17439;48.092;11.842;2023-05-23T13:06:09;17.38;;;10.02;;
30681;SDS011;17439;48.092;11.842;2023-05-23T13:08:36;16.35;;;9.65;;
30681;SDS011;17439;48.092;11.842;2023-05-23T13:11:03;16.63;;;10.27;;
30681;SDS011;17439;48.092;11.842;2023-05-23T13:13:30;14.70;;;9.23;;
30681;SDS011;17439;48.092;11.842;2023-05-23T13:15:56;16.27;;;10.40;;
30681;SDS011;17439;48.092;11.842;2023-05-23T13:18:23;18.75;;;9.30;;
30681;SDS011;17439;48.092;11.842;2023-05-23T13:20:50;14.27;;;9.97;;
30681;SDS011;17439;48.092;11.842;2023-05-23T13:23:18;20.92;;;9.35;;
30681;SDS011;17439;48.092;11.842;2023-05-23T13:25:45;14.95;;;8.38;;
30681;SDS011;17439;48.092;11.842;2023-05-23T13:28:12;13.30;;;9.27;;
30681;SDS011;17439;48.092;11.842;2023-05-23T13:30:38;14.07;;;10.20;;
30681;SDS011;17439;48.092;11.842;2023-05-23T13:33:05;16.75;;;9.80;;
30681;SDS011;17439;48.092;11.842;2023-05-23T13:35:32;12.45;;;8.48;;
30681;SDS011;17439;48.092;11.842;2023-05-23T13:37:59;13.18;;;8.35;;
30681;SDS011;17439;48.092;11.842;2023-05-23T13:40:25;13.93;;;9.25;;
30681;SDS011;17439;48.092;11.842;2023-05-23T13:42:52;13.43;;;8.50;;
30681;SDS011;17439;48.092;11.842;2023-05-23T13:45:19;16.55;;;8.95;;
30681;SDS011;17439;48.092;11.842;2023-05-23T13:47:46;11.52;;;8.25;;
30681;SDS011;17439;48.092;11.842;2023-05-23T13:50:13;10.88;;;8.35;;
30681;SDS011;17439;48.092;11.842;2023-05-23T13:52:39;12.95;;;8.88;;
30681;SDS011;17439;48.092;11.842;2023-05-23T13:55:11;13.20;;;8.18;;
30681;SDS011;17439;48.092;11.842;2023-05-23T13:57:38;13.80;;;8.02;;
30681;SDS011;17439;48.092;11.842;2023-05-23T14:00:05;13.85;;;7.97;;
30681;SDS011;17439;48.092;11.842;2023-05-23T14:02:33;16.05;;;9.25;;
30681;SDS011;17439;48.092;11.842;2023-05-23T14:04:59;12.02;;;7.95;;
30681;SDS011;17439;48.092;11.842;2023-05-23T14:07:26;12.80;;;8.70;;
30681;SDS011;17439;48.092;11.842;2023-05-23T14:09:53;12.55;;;8.38;;
30681;SDS011;17439;48.092;11.842;2023-05-23T14:12:20;10.25;;;5.53;;
30681;SDS011;17439;48.092;11.842;2023-05-23T14:14:47;12.77;;;7.28;;
30681;SDS011;17439;48.092;11.842;2023-05-23T14:17:14;15.20;;;8.07;;
30681;SDS011;17439;48.092;11.842;2023-05-23T14:19:41;9.88;;;5.47;;
30681;SDS011;17439;48.092;11.842;2023-05-23T14:22:08;7.60;;;4.47;;
30681;SDS011;17439;48.092;11.842;2023-05-23T14:24:35;7.70;;;4.95;;
30681;SDS011;17439;48.092;11.842;2023-05-23T14:27:02;8.25;;;4.95;;
30681;SDS011;17439;48.092;11.842;2023-05-23T14:29:29;8.23;;;5.22;;
30681;SDS011;17439;48.092;11.842;2023-05-23T14:31:56;8.95;;;4.95;;
30681;SDS011;17439;48.092;11.842;2023-05-23T14:34:22;9.05;;;5.18;;
30681;SDS011;17439;48.092;11.842;2023-05-23T14:36:49;7.90;;;4.65;;
30681;SDS011;17439;48.092;11.842;2023-05-23T14:39:16;5.90;;;4.53;;
30681;SDS011;17439;48.092;11.842;2023-05-23T14:41:42;9.15;;;5.68;;
30681;SDS011;17439;48.092;11.842;2023-05-23T14:44:09;8.40;;;5.30;;
30681;SDS011;17439;48.092;11.842;2023-05-23T14:46:36;8.77;;;4.93;;
30681;SDS011;17439;48.092;11.842;2023-05-23T14:49:02;9.13;;;4.72;;
30681;SDS011;17439;48.092;11.842;2023-05-23T14:51:29;10.02;;;5.85;;
30681;SDS011;17439;48.092;11.842;2023-05-23T14:54:14;9.05;;;4.97;;
30681;SDS011;17439;48.092;11.842;2023-05-23T14:56:40;6.88;;;4.63;;
30681;SDS011;17439;48.092;11.842;2023-05-23T14:59:07;7.45;;;4.78;;
30681;SDS011;17439;48.092;11.842;2023-05-23T15:01:34;10.27;;;4.93;;
30681;SDS011;17439;48.092;11.842;2023-05-23T15:04:04;6.97;;;4.30;;
30681;SDS011;17439;48.092;11.842;2023-05-23T15:06:31;5.07;;;4.07;;
30681;SDS011;17439;48.092;11.842;2023-05-23T15:08:58;8.75;;;4.60;;
30681;SDS011;17439;48.092;11.842;2023-05-23T15:11:24;5.72;;;4.07;;
30681;SDS011;17439;48.092;11.842;2023-05-23T15:13:53;6.25;;;4.85;;